Time;durP1;ratioP1;P1;durP2;ratioP2;P2;SDS_P1;SDS_P2;PMS_P1;PMS_P2;Temp;Humidity;BMP_temperature;BMP_pressure;BME280_temperature;BME280_humidity;BME280_pressure;Samples;Min_cycle;Max_cycle;Signal;HPM_P1;HPM_P2
2023/10/07 00:01:56;;;;;;;4.40;3.83;;;;;;;11.35;96.94;154273.78;4970681;28;20441;-87
2023/10/07 00:04:22;;;;;;;5.50;4.43;;;;;;;11.36;97.27;154276.34;4955102;28;20561;-87
2023/10/07 00:06:49;;;;;;;8.63;4.73;;;;;;;11.33;96.87;154268.59;4971740;28;20513;-87
2023/10/07 00:09:22;;;;;;;5.57;4.03;;;;;;;11.36;96.64;154276.34;4953348;28;20462;-87
2023/10/07 00:11:49;;;;;;;6.70;4.27;;;;;;;11.31;95.84;154263.38;4956044;28;21051;-87
2023/10/07 00:14:16;;;;;;;6.37;4.30;;;;;;;11.27;95.76;154254.34;4964100;28;20936;-87
2023/10/07 00:16:46;;;;;;;5.60;3.80;;;;;;;11.26;95.53;154250.44;4976009;28;20446;-87
2023/10/07 00:19:14;;;;;;;6.73;3.97;;;;;;;11.22;95.86;154240.09;4956885;28;20489;-87
2023/10/07 00:21:58;;;;;;;5.57;3.50;;;;;;;11.18;95.62;154229.72;4974794;28;20856;-87
2023/10/07 00:24:26;;;;;;;6.17;4.27;;;;;;;11.14;95.23;154219.38;4941225;28;20800;-87
2023/10/07 00:26:53;;;;;;;5.60;4.20;;;;;;;11.14;95.56;154219.38;4955575;28;20446;-86
2023/10/07 00:29:23;;;;;;;5.67;3.77;;;;;;;11.16;95.31;154225.84;4969353;28;20453;-86
2023/10/07 00:31:52;;;;;;;8.17;4.37;;;;;;;11.15;95.30;154221.94;4952888;28;20502;-86
2023/10/07 00:34:27;;;;;;;5.63;4.10;;;;;;;11.16;95.68;154224.53;4937744;28;21028;-86
2023/10/07 00:36:57;;;;;;;5.83;4.67;;;;;;;11.14;95.09;154220.66;4954765;28;20438;-86
2023/10/07 00:39:31;;;;;;;7.30;5.43;;;;;;;11.13;95.19;154216.75;4953848;28;20497;-86
2023/10/07 00:41:59;;;;;;;7.10;4.37;;;;;;;11.13;95.21;154216.75;4951647;28;20443;-86
2023/10/07 00:44:31;;;;;;;6.07;4.37;;;;;;;11.08;94.85;154205.13;4935337;29;20458;-86
2023/10/07 00:47:13;;;;;;;6.30;4.40;;;;;;;11.08;95.28;154203.81;4937127;28;20505;-85
2023/10/07 00:49:43;;;;;;;8.20;4.20;;;;;;;11.05;95.02;154196.03;4962000;28;20485;-86
2023/10/07 00:52:14;;;;;;;6.63;4.50;;;;;;;11.04;95.10;154193.47;4953715;28;20530;-87
2023/10/07 00:54:50;;;;;;;6.13;4.33;;;;;;;11.01;94.81;154188.25;4953409;28;20454;-87
2023/10/07 00:57:24;;;;;;;4.87;4.23;;;;;;;11.00;94.69;154184.38;4937720;28;20838;-87
2023/10/07 00:59:52;;;;;;;4.63;4.07;;;;;;;10.95;94.62;154172.75;4932739;29;21019;-87
2023/10/07 01:02:29;;;;;;;6.47;4.60;;;;;;;10.93;94.69;154167.53;4965969;28;20548;-86
2023/10/07 01:05:06;;;;;;;4.57;3.80;;;;;;;10.91;95.27;154161.06;4960896;28;20465;-87
2023/10/07 01:07:34;;;;;;;6.13;3.87;;;;;;;10.88;95.08;154154.56;4935427;29;20439;-86
2023/10/07 01:10:12;;;;;;;5.90;4.40;;;;;;;10.85;95.20;154146.84;4928731;28;20989;-86
2023/10/07 01:12:39;;;;;;;7.20;4.87;;;;;;;10.83;95.20;154141.63;4934534;29;20461;-88
2023/10/07 01:15:17;;;;;;;5.73;4.30;;;;;;;10.82;94.97;154139.06;4970364;28;20539;-88
2023/10/07 01:17:43;;;;;;;6.63;4.70;;;;;;;10.81;95.52;154136.47;4954808;28;20675;-88
2023/10/07 01:20:14;;;;;;;5.97;4.33;;;;;;;10.77;95.15;154126.13;4954263;28;20492;-87
2023/10/07 01:23:01;;;;;;;6.57;4.47;;;;;;;10.76;95.63;154123.53;4954521;28;20446;-88
2023/10/07 01:25:29;;;;;;;5.50;4.53;;;;;;;10.74;95.36;154118.34;4954655;28;20465;-88
2023/10/07 01:27:56;;;;;;;7.13;4.70;;;;;;;10.74;95.51;154118.34;4969609;28;20872;-88
2023/10/07 01:30:26;;;;;;;6.30;4.00;;;;;;;10.71;94.83;154110.56;4973421;28;20813;-88
2023/10/07 01:33:01;;;;;;;4.90;3.83;;;;;;;10.71;95.07;154110.56;4989711;28;20876;-86
2023/10/07 01:35:32;;;;;;;5.60;4.13;;;;;;;10.71;95.11;154110.56;4958456;28;20447;-89
2023/10/07 01:38:07;;;;;;;6.57;4.27;;;;;;;10.69;95.17;154105.41;4974693;28;20445;-88
2023/10/07 01:40:53;;;;;;;6.47;4.47;;;;;;;10.67;94.79;154100.19;4958234;28;20448;-88
2023/10/07 01:43:20;;;;;;;6.43;4.47;;;;;;;10.63;95.10;154089.84;4959016;28;20448;-88
2023/10/07 01:45:49;;;;;;;4.53;3.50;;;;;;;10.61;95.07;154084.69;4973070;28;20450;-88
2023/10/07 01:48:17;;;;;;;5.57;4.20;;;;;;;10.59;95.18;154078.22;4970138;28;20445;-88
2023/10/07 01:50:45;;;;;;;5.67;4.10;;;;;;;10.55;95.08;154067.84;4971998;28;20528;-88
2023/10/07 01:53:15;;;;;;;6.10;4.13;;;;;;;10.50;95.02;154056.19;4981103;28;20466;-88
2023/10/07 01:55:43;;;;;;;7.30;4.47;;;;;;;10.49;95.70;154053.59;4992459;28;20514;-88
2023/10/07 01:58:13;;;;;;;4.80;3.63;;;;;;;10.48;95.52;154051.03;4966285;28;20526;-87
2023/10/07 02:00:44;;;;;;;7.40;4.93;;;;;;;10.44;95.23;154039.34;4955978;28;20810;-88
2023/10/07 02:03:15;;;;;;;6.63;4.63;;;;;;;10.42;95.21;154034.16;4971095;28;20445;-86
2023/10/07 02:05:46;;;;;;;5.87;4.57;;;;;;;10.39;95.11;154027.69;4975391;28;20465;-86
2023/10/07 02:08:18;;;;;;;5.13;3.90;;;;;;;10.37;95.57;154022.53;4985573;28;20444;-86
2023/10/07 02:10:47;;;;;;;4.73;3.70;;;;;;;10.32;94.72;154010.91;4974173;28;20865;-87
2023/10/07 02:13:16;;;;;;;6.23;4.00;;;;;;;10.29;94.92;154001.81;4981399;28;20540;-87
2023/10/07 02:15:43;;;;;;;5.80;4.17;;;;;;;10.31;95.61;154007.00;4963605;28;20481;-87
2023/10/07 02:18:15;;;;;;;5.77;4.63;;;;;;;10.30;95.54;154004.38;4979380;28;20467;-86
2023/10/07 02:20:44;;;;;;;5.73;4.37;;;;;;;10.29;94.62;154001.81;4959826;28;20476;-87
2023/10/07 02:23:13;;;;;;;4.97;4.00;;;;;;;10.28;94.89;154000.50;4969003;28;20833;-86
2023/10/07 02:25:49;;;;;;;6.27;3.80;;;;;;;10.29;94.31;154001.81;4953471;28;20443;-86
2023/10/07 02:28:15;;;;;;;5.80;4.00;;;;;;;10.29;94.57;154003.13;4947457;28;20514;-87
2023/10/07 02:30:51;;;;;;;5.53;4.37;;;;;;;10.29;94.20;154003.13;4971940;28;20438;-87
2023/10/07 02:33:21;;;;;;;5.07;3.80;;;;;;;10.25;93.85;153992.75;4978000;28;20831;-87
2023/10/07 02:35:55;;;;;;;5.90;4.53;;;;;;;10.23;94.40;153986.28;5008115;28;20451;-87
2023/10/07 02:38:26;;;;;;;6.43;4.30;;;;;;;10.21;94.18;153981.09;4970629;28;20779;-87
2023/10/07 02:40:58;;;;;;;5.20;3.67;;;;;;;10.20;94.06;153978.50;4971524;28;20548;-87
2023/10/07 02:43:27;;;;;;;6.90;4.03;;;;;;;10.19;94.40;153975.94;4971637;28;20456;-87
2023/10/07 02:45:59;;;;;;;4.27;3.80;;;;;;;10.15;94.57;153965.56;4972210;28;20445;-87
2023/10/07 02:48:30;;;;;;;4.93;3.87;;;;;;;10.11;94.77;153955.19;4953310;28;20902;-87
2023/10/07 02:51:06;;;;;;;5.30;3.83;;;;;;;10.08;94.75;153947.41;4954837;28;20815;-88
2023/10/07 02:53:35;;;;;;;7.90;4.80;;;;;;;10.08;94.81;153947.41;4951978;28;20469;-87
2023/10/07 02:56:16;;;;;;;6.33;5.07;;;;;;;10.09;94.32;153951.25;4951857;28;20452;-87
2023/10/07 02:58:59;;;;;;;5.53;4.27;;;;;;;10.08;94.63;153948.72;4994302;28;20459;-87
2023/10/07 03:01:26;;;;;;;4.93;3.77;;;;;;;10.03;93.94;153935.78;4987982;28;20456;-88
2023/10/07 03:03:53;;;;;;;5.20;4.27;;;;;;;10.02;94.59;153931.88;5003007;28;20460;-88
2023/10/07 03:06:25;;;;;;;8.07;4.97;;;;;;;10.01;94.69;153929.25;4991979;28;20848;-87
2023/10/07 03:09:00;;;;;;;5.10;4.03;;;;;;;9.99;94.26;153924.09;4971570;28;20449;-87
2023/10/07 03:11:40;;;;;;;5.73;4.03;;;;;;;10.04;94.25;153937.03;4953881;28;20452;-87
2023/10/07 03:14:12;;;;;;;5.20;3.90;;;;;;;10.05;94.37;153940.94;4967344;28;20473;-87
2023/10/07 03:16:45;;;;;;;5.43;3.97;;;;;;;10.04;94.01;153937.03;4953042;28;20447;-87
2023/10/07 03:19:22;;;;;;;8.73;4.70;;;;;;;10.04;93.72;153937.03;4951805;28;20474;-87
2023/10/07 03:22:09;;;;;;;5.80;4.40;;;;;;;10.04;94.10;153937.03;4968621;28;20477;-87
2023/10/07 03:24:54;;;;;;;5.40;4.37;;;;;;;10.01;93.89;153930.56;4968383;28;20488;-87
2023/10/07 03:27:25;;;;;;;7.53;4.27;;;;;;;10.01;93.79;153929.25;4968298;28;20458;-88
2023/10/07 03:30:12;;;;;;;6.00;3.90;;;;;;;9.99;93.89;153925.38;4951824;28;20441;-87
2023/10/07 03:32:55;;;;;;;5.97;3.70;;;;;;;10.00;94.14;153928.00;4939035;28;20458;-87
2023/10/07 03:38:09;;;;;;;5.53;4.40;;;;;;;9.95;93.77;153913.75;4960716;28;20535;-88
2023/10/07 03:40:38;;;;;;;4.97;3.53;;;;;;;9.93;94.34;153908.59;4952939;28;20510;-87
2023/10/07 03:43:08;;;;;;;6.07;4.40;;;;;;;9.89;94.05;153898.22;4952977;28;20438;-87
2023/10/07 03:45:39;;;;;;;6.23;3.90;;;;;;;9.88;93.80;153895.59;4953363;28;20458;-87
2023/10/07 03:48:22;;;;;;;7.00;4.17;;;;;;;9.88;94.44;153895.59;4952804;28;20499;-87
2023/10/07 03:50:59;;;;;;;5.80;3.73;;;;;;;9.84;94.07;153886.59;4933431;29;20456;-88
2023/10/07 03:53:31;;;;;;;6.90;4.07;;;;;;;9.83;94.07;153883.97;4959129;28;20452;-87
2023/10/07 03:55:59;;;;;;;8.07;4.80;;;;;;;9.80;94.23;153877.50;4965353;28;20539;-87
2023/10/07 03:58:27;;;;;;;5.23;4.10;;;;;;;9.77;93.96;153869.75;4964749;28;20442;-87
2023/10/07 04:00:54;;;;;;;6.53;4.73;;;;;;;9.76;94.36;153867.19;4950262;28;20484;-87
2023/10/07 04:03:24;;;;;;;5.03;3.50;;;;;;;9.71;94.37;153854.25;4954326;28;20438;-87
2023/10/07 04:05:51;;;;;;;4.53;4.13;;;;;;;9.69;94.63;153849.03;4949322;28;20508;-87
2023/10/07 04:08:18;;;;;;;4.90;3.50;;;;;;;9.69;95.12;153849.03;4941449;28;20840;-87
2023/10/07 04:10:45;;;;;;;4.70;4.00;;;;;;;9.66;95.02;153840.00;4950610;28;20504;-87
2023/10/07 04:13:21;;;;;;;6.40;5.03;;;;;;;9.63;94.93;153833.53;4935497;28;20462;-87
2023/10/07 04:15:57;;;;;;;6.40;4.10;;;;;;;9.61;95.06;153828.34;4955092;28;20432;-87
2023/10/07 04:18:34;;;;;;;6.00;4.00;;;;;;;9.59;95.12;153823.16;4971892;28;20468;-86
2023/10/07 04:21:02;;;;;;;4.50;3.70;;;;;;;9.59;95.49;153823.16;4951728;28;20832;-87
2023/10/07 04:23:29;;;;;;;5.40;3.80;;;;;;;9.58;95.54;153819.31;4951848;29;20501;-87
2023/10/07 04:26:09;;;;;;;5.53;4.00;;;;;;;9.53;95.47;153807.63;4945630;28;20801;-87
2023/10/07 04:28:39;;;;;;;4.80;4.00;;;;;;;9.48;95.76;153794.69;4975074;28;20581;-87
2023/10/07 04:31:10;;;;;;;7.10;4.30;;;;;;;9.49;95.80;153796.00;4954123;28;20450;-87
2023/10/07 04:33:41;;;;;;;7.00;4.90;;;;;;;9.45;96.00;153786.94;4964183;28;20450;-87
2023/10/07 04:36:12;;;;;;;6.30;4.60;;;;;;;9.43;95.90;153781.75;4963628;28;20978;-87
2023/10/07 04:38:53;;;;;;;5.10;4.60;;;;;;;9.46;96.09;153788.22;4939162;28;20469;-87
2023/10/07 04:41:32;;;;;;;6.60;4.50;;;;;;;9.43;96.27;153781.75;4959335;28;20549;-87
2023/10/07 04:44:20;;;;;;;5.67;4.03;;;;;;;9.39;96.05;153771.44;4958006;28;20446;-87
2023/10/07 04:46:56;;;;;;;5.33;4.67;;;;;;;9.35;96.30;153761.06;4973184;28;20455;-86
2023/10/07 04:49:36;;;;;;;5.27;3.77;;;;;;;9.33;96.27;153755.91;4938177;28;20458;-87
2023/10/07 04:52:05;;;;;;;7.53;4.60;;;;;;;9.34;96.96;153757.22;4952988;28;20441;-87
2023/10/07 04:54:35;;;;;;;9.83;4.20;;;;;;;9.35;97.13;153761.06;4968322;28;20447;-87
2023/10/07 04:57:05;;;;;;;4.53;4.07;;;;;;;9.33;96.77;153755.91;4939129;28;20905;-87
2023/10/07 04:59:43;;;;;;;5.80;4.40;;;;;;;9.30;96.65;153748.13;4951288;29;20483;-87
2023/10/07 05:02:10;;;;;;;5.33;3.80;;;;;;;9.28;96.45;153742.97;4933412;28;21012;-88
2023/10/07 05:04:39;;;;;;;6.03;4.50;;;;;;;9.26;96.63;153737.81;4949557;28;20483;-88
2023/10/07 05:07:05;;;;;;;5.87;4.20;;;;;;;9.27;96.46;153739.06;4957478;28;20451;-87
2023/10/07 05:09:32;;;;;;;4.73;4.07;;;;;;;9.22;96.47;153727.44;4940411;28;20526;-87
2023/10/07 05:11:58;;;;;;;9.90;4.37;;;;;;;9.21;96.85;153723.59;4965779;28;20970;-87
2023/10/07 05:14:25;;;;;;;6.53;4.33;;;;;;;9.13;96.87;153705.44;4957260;28;20489;-87
2023/10/07 05:16:52;;;;;;;5.20;4.23;;;;;;;9.06;97.09;153686.06;4968815;28;20201;-87
2023/10/07 05:19:22;;;;;;;4.90;4.27;;;;;;;9.04;97.28;153682.19;4974259;28;20455;-87
2023/10/07 05:21:59;;;;;;;6.30;4.10;;;;;;;9.03;97.50;153679.59;4967642;28;20457;-87
2023/10/07 05:24:29;;;;;;;5.67;4.10;;;;;;;9.03;97.37;153678.28;4980166;28;20459;-87
2023/10/07 05:26:56;;;;;;;4.73;3.70;;;;;;;9.03;97.78;153678.28;4979744;28;20475;-87
2023/10/07 05:29:24;;;;;;;7.93;5.20;;;;;;;9.01;97.56;153673.13;4981383;28;20995;-86
2023/10/07 05:31:51;;;;;;;7.73;4.43;;;;;;;9.04;97.67;153682.19;4967741;28;20460;-87
2023/10/07 05:34:18;;;;;;;6.07;4.30;;;;;;;9.05;97.99;153683.50;4985882;28;20478;-86
2023/10/07 05:36:47;;;;;;;5.87;4.60;;;;;;;9.06;97.45;153687.34;4983388;28;20527;-86
2023/10/07 05:39:15;;;;;;;5.57;3.90;;;;;;;9.05;97.41;153683.50;4964777;28;20517;-86
2023/10/07 05:41:44;;;;;;;7.77;4.80;;;;;;;9.04;97.46;153680.88;4985455;28;20506;-87
2023/10/07 05:44:11;;;;;;;8.43;5.37;;;;;;;9.01;97.49;153673.13;4968064;28;20486;-86
2023/10/07 05:46:37;;;;;;;5.40;4.37;;;;;;;9.04;97.67;153680.88;4983272;28;20442;-87
2023/10/07 05:49:05;;;;;;;6.83;4.90;;;;;;;9.06;97.76;153686.06;4970212;28;20462;-87
2023/10/07 05:51:34;;;;;;;8.47;5.70;;;;;;;9.09;97.82;153695.13;4987103;28;20538;-88
2023/10/07 05:54:03;;;;;;;4.40;3.90;;;;;;;9.10;97.45;153696.41;4969570;28;20458;-88
2023/10/07 05:56:30;;;;;;;5.90;4.67;;;;;;;9.16;97.65;153711.91;4976312;28;20988;-88
2023/10/07 05:58:57;;;;;;;5.40;4.07;;;;;;;9.25;97.29;153733.91;4967049;28;20462;-87
2023/10/07 06:01:25;;;;;;;6.93;4.20;;;;;;;9.35;96.89;153761.06;4969252;28;20529;-87
2023/10/07 06:03:52;;;;;;;4.73;4.03;;;;;;;9.46;96.77;153789.53;4975680;28;20474;-88
2023/10/07 06:06:20;;;;;;;6.03;4.23;;;;;;;9.59;96.27;153823.16;4982054;28;20447;-88
2023/10/07 06:08:47;;;;;;;8.70;4.57;;;;;;;9.73;95.23;153859.41;4982983;28;20576;-88
2023/10/07 06:11:16;;;;;;;5.40;4.40;;;;;;;9.91;95.20;153903.38;4963220;28;20461;-88
2023/10/07 06:13:47;;;;;;;6.00;4.20;;;;;;;10.07;94.34;153944.81;4978468;28;21024;-87
2023/10/07 06:16:20;;;;;;;4.43;3.37;;;;;;;10.24;93.82;153990.19;4979682;28;20805;-87
2023/10/07 06:18:49;;;;;;;4.63;3.93;;;;;;;10.44;93.19;154040.63;4948192;28;20566;-88
2023/10/07 06:21:27;;;;;;;5.07;4.00;;;;;;;10.65;92.84;154095.03;4965627;28;20520;-87
2023/10/07 06:23:55;;;;;;;7.13;4.63;;;;;;;10.87;92.30;154152.03;4966714;28;20453;-89
2023/10/07 06:26:25;;;;;;;5.03;4.53;;;;;;;11.09;91.26;154206.41;4962242;28;20492;-89
2023/10/07 06:28:52;;;;;;;6.70;4.50;;;;;;;11.31;90.47;154263.38;4978787;28;20563;-87
2023/10/07 06:31:28;;;;;;;4.57;3.10;;;;;;;11.55;89.81;154325.59;4950187;28;20454;-88
2023/10/07 06:34:00;;;;;;;5.30;3.60;;;;;;;11.81;88.12;154393.00;4977969;28;20494;-87
2023/10/07 06:36:30;;;;;;;5.80;3.67;;;;;;;12.09;87.50;154464.31;4973945;28;20952;-86
2023/10/07 06:38:58;;;;;;;7.37;3.90;;;;;;;12.40;86.21;154543.41;4965476;28;20812;-85
2023/10/07 06:41:29;;;;;;;6.17;3.97;;;;;;;12.69;85.44;154618.63;4965205;28;20466;-85
2023/10/07 06:43:59;;;;;;;6.00;3.23;;;;;;;12.90;83.18;154671.78;4973562;28;20451;-85
2023/10/07 06:46:29;;;;;;;6.87;4.13;;;;;;;13.12;82.14;154730.22;4937310;28;20503;-85
2023/10/07 06:48:55;;;;;;;6.17;4.40;;;;;;;13.34;81.97;154787.28;4975396;28;20473;-85
2023/10/07 06:51:28;;;;;;;4.90;3.80;;;;;;;13.55;81.23;154840.53;4961311;28;20458;-85
2023/10/07 06:53:55;;;;;;;7.17;3.83;;;;;;;13.79;80.38;154901.53;4959204;28;20545;-86
2023/10/07 06:56:21;;;;;;;6.70;3.47;;;;;;;14.02;79.03;154961.25;4978454;28;20474;-86
2023/10/07 06:58:53;;;;;;;5.23;3.60;;;;;;;14.28;77.85;155028.75;4980857;28;20454;-85
2023/10/07 07:01:35;;;;;;;5.23;3.80;;;;;;;14.55;77.46;155097.63;4977256;28;20903;-86
2023/10/07 07:04:09;;;;;;;4.70;3.83;;;;;;;14.86;77.01;155176.84;4977617;28;20457;-86
2023/10/07 07:06:42;;;;;;;5.70;3.80;;;;;;;15.18;75.31;155260.00;4980298;28;20818;-87
2023/10/07 07:09:41;;;;;;;7.40;3.63;;;;;;;15.53;74.29;155349.75;4948485;28;20475;-87
2023/10/07 07:11:58;;;;;;;5.70;3.60;;;;;;;15.89;73.11;155442.00;4948619;28;20446;-85
2023/10/07 07:14:30;;;;;;;5.23;3.13;;;;;;;16.18;72.55;155517.44;4980645;28;20584;-87
2023/10/07 07:16:57;;;;;;;4.93;3.17;;;;;;;16.51;70.84;155603.28;4980446;28;20454;-84
2023/10/07 07:19:24;;;;;;;4.80;3.50;;;;;;;16.89;69.46;155702.19;4962293;28;20450;-85
2023/10/07 07:21:50;;;;;;;4.50;3.33;;;;;;;17.13;67.66;155763.34;4953032;28;20470;-86
2023/10/07 07:24:21;;;;;;;3.70;2.97;;;;;;;17.12;67.29;155759.47;4962342;28;20465;-86
2023/10/07 07:26:51;;;;;;;4.17;3.23;;;;;;;16.89;69.10;155702.19;4961248;28;20720;-86
2023/10/07 07:29:23;;;;;;;5.83;3.80;;;;;;;16.54;70.51;155611.16;4959913;28;20473;-86
2023/10/07 07:31:51;;;;;;;4.20;3.57;;;;;;;16.09;70.60;155495.38;4962457;28;20461;-86
2023/10/07 07:34:24;;;;;;;5.50;4.10;;;;;;;15.80;70.52;155421.25;4963805;28;20454;-86
2023/10/07 07:36:59;;;;;;;5.67;4.10;;;;;;;15.67;72.12;155387.41;4965218;28;20442;-87
2023/10/07 07:39:30;;;;;;;5.40;4.00;;;;;;;15.77;73.22;155413.47;4963315;28;21038;-87
2023/10/07 07:41:56;;;;;;;6.30;4.33;;;;;;;16.16;73.08;155512.25;4955733;28;20577;-85
2023/10/07 07:44:32;;;;;;;5.63;4.27;;;;;;;16.71;71.08;155655.34;4970400;28;20463;-85
2023/10/07 07:47:02;;;;;;;5.20;3.90;;;;;;;17.19;69.27;155778.97;4947136;28;20463;-85
2023/10/07 07:49:32;;;;;;;4.93;3.70;;;;;;;17.61;67.71;155887.03;4968096;28;20782;-84
2023/10/07 07:51:59;;;;;;;5.93;4.10;;;;;;;17.89;65.94;155959.97;4983228;28;20435;-84
2023/10/07 07:54:26;;;;;;;5.63;3.57;;;;;;;18.05;65.69;156001.66;4948213;28;20569;-85
2023/10/07 07:56:54;;;;;;;4.53;4.10;;;;;;;18.12;65.32;156019.88;4969902;28;20490;-85
2023/10/07 07:59:21;;;;;;;5.50;3.77;;;;;;;18.21;65.02;156042.00;4942473;28;20446;-84
2023/10/07 08:01:53;;;;;;;5.13;3.80;;;;;;;18.21;64.12;156043.28;4958563;28;20791;-85
2023/10/07 08:07:06;;;;;;;4.90;4.00;;;;;;;17.54;67.09;155870.16;4968913;28;20950;-85
2023/10/07 08:09:36;;;;;;;4.90;4.07;;;;;;;17.23;66.31;155788.09;4956565;28;20906;-85
2023/10/07 08:12:04;;;;;;;4.73;3.60;;;;;;;17.10;68.60;155754.25;4958782;28;20446;-85
2023/10/07 08:14:32;;;;;;;6.10;4.20;;;;;;;17.08;68.76;155749.06;4975736;28;20477;-84
2023/10/07 08:17:00;;;;;;;6.13;4.23;;;;;;;17.08;68.37;155749.06;4985661;28;20449;-85
2023/10/07 08:19:30;;;;;;;6.90;4.63;;;;;;;17.15;68.82;155768.59;4969597;28;20472;-84
2023/10/07 08:21:57;;;;;;;6.70;4.17;;;;;;;17.18;69.01;155775.09;4985000;28;21042;-85
2023/10/07 08:24:26;;;;;;;5.47;4.30;;;;;;;17.16;71.00;155769.84;4978170;28;20544;-85
2023/10/07 08:26:59;;;;;;;6.00;3.70;;;;;;;17.16;70.28;155769.84;4973191;28;20446;-85
2023/10/07 08:29:33;;;;;;;6.90;4.70;;;;;;;17.16;71.15;155769.84;4976336;28;20450;-84
2023/10/07 08:32:00;;;;;;;7.80;4.10;;;;;;;17.20;71.82;155780.28;4987174;28;20541;-84
2023/10/07 08:34:34;;;;;;;4.47;3.73;;;;;;;17.22;70.82;155785.47;4984662;28;20457;-84
2023/10/07 08:37:02;;;;;;;7.60;4.13;;;;;;;17.27;68.18;155798.47;4987086;28;20516;-85
2023/10/07 08:39:44;;;;;;;6.60;4.47;;;;;;;17.39;71.05;155829.75;4971265;28;20536;-84
2023/10/07 08:42:26;;;;;;;9.07;4.77;;;;;;;17.41;69.15;155834.94;4987488;28;20479;-84
2023/10/07 08:44:58;;;;;;;6.03;3.80;;;;;;;17.47;69.35;155850.56;4971603;28;20480;-84
2023/10/07 08:47:28;;;;;;;5.33;4.00;;;;;;;17.54;69.89;155868.84;4970772;28;20458;-85
2023/10/07 08:50:06;;;;;;;4.50;3.50;;;;;;;17.59;69.60;155883.16;4965956;28;20453;-84
2023/10/07 08:52:33;;;;;;;4.30;3.40;;;;;;;17.57;68.00;155877.97;4981802;28;20607;-84
2023/10/07 08:55:00;;;;;;;5.27;3.93;;;;;;;17.53;70.92;155866.22;4985165;28;20484;-84
2023/10/07 08:57:34;;;;;;;6.10;3.90;;;;;;;17.50;70.38;155858.38;5004297;28;20480;-83
2023/10/07 09:00:02;;;;;;;5.50;3.40;;;;;;;17.50;67.49;155858.38;4977382;28;20576;-84
2023/10/07 09:02:36;;;;;;;4.40;3.43;;;;;;;17.61;69.05;155888.34;4988418;28;20536;-84
2023/10/07 09:05:09;;;;;;;5.43;4.20;;;;;;;17.73;69.25;155917.00;4986872;28;20575;-84
2023/10/07 09:07:36;;;;;;;5.60;4.13;;;;;;;17.82;70.87;155940.44;4987909;28;20462;-84
2023/10/07 09:10:14;;;;;;;4.57;3.60;;;;;;;17.85;71.26;155948.22;4978418;28;20461;-84
2023/10/07 09:12:46;;;;;;;5.80;4.30;;;;;;;17.75;68.69;155923.50;4989133;28;20464;-84
2023/10/07 09:15:20;;;;;;;4.90;3.80;;;;;;;17.75;68.72;155923.50;4968990;28;20556;-85
2023/10/07 09:17:47;;;;;;;5.40;4.00;;;;;;;17.76;68.59;155926.13;4968924;28;20548;-84
2023/10/07 09:20:17;;;;;;;5.90;4.20;;;;;;;17.80;68.38;155935.22;4984599;28;20460;-84
2023/10/07 09:22:46;;;;;;;5.77;4.13;;;;;;;17.80;68.63;155936.53;4985359;28;20472;-84
2023/10/07 09:25:17;;;;;;;6.47;4.73;;;;;;;17.83;70.63;155943.03;4975362;28;20823;-84
2023/10/07 09:27:49;;;;;;;5.63;4.53;;;;;;;17.81;68.68;155939.16;4977865;28;20445;-84
2023/10/07 09:33:35;;;;;;;5.27;4.17;;;;;;;17.96;67.10;155978.19;4987792;28;20433;-83
2023/10/07 09:38:44;;;;;;;6.57;4.03;;;;;;;18.04;66.90;155997.72;4979854;28;20489;-84
2023/10/07 09:41:23;;;;;;;5.00;3.93;;;;;;;18.02;67.32;155992.53;4971603;28;20893;-83
2023/10/07 09:43:51;;;;;;;7.23;3.80;;;;;;;17.99;65.67;155986.00;4982675;28;20548;-84
2023/10/07 09:46:24;;;;;;;4.97;4.40;;;;;;;18.04;65.09;155999.03;4985785;28;20501;-83
2023/10/07 09:48:51;;;;;;;7.77;4.33;;;;;;;18.11;67.40;156017.25;4986417;28;20540;-84
2023/10/07 09:51:28;;;;;;;4.27;3.77;;;;;;;18.11;66.16;156017.25;4979105;28;20910;-83
2023/10/07 09:54:07;;;;;;;9.70;4.07;;;;;;;18.13;65.33;156022.50;4970459;28;20460;-83
2023/10/07 09:56:43;;;;;;;5.67;3.30;;;;;;;18.12;68.28;156018.56;4968870;28;20468;-83
2023/10/07 09:59:22;;;;;;;4.80;2.60;;;;;;;18.03;64.60;155996.41;4966115;28;20460;-83
2023/10/07 10:02:26;;;;;;;6.70;3.27;;;;;;;17.96;65.16;155978.19;4967677;28;20485;-83
2023/10/07 10:05:05;;;;;;;4.80;3.40;;;;;;;17.91;67.33;155965.16;4985623;28;20557;-84
2023/10/07 10:07:57;;;;;;;3.57;2.90;;;;;;;17.89;66.96;155958.66;4976224;28;21050;-84
2023/10/07 10:10:31;;;;;;;8.20;2.90;;;;;;;17.87;65.40;155954.72;4971717;28;20485;-84
2023/10/07 10:13:07;;;;;;;3.87;2.50;;;;;;;17.90;63.58;155962.56;4984821;28;20449;-85
2023/10/07 10:15:52;;;;;;;4.10;2.80;;;;;;;17.94;62.31;155973.00;4956405;28;20568;-84
2023/10/07 10:18:43;;;;;;;3.73;2.93;;;;;;;17.98;59.72;155983.38;4950056;28;20508;-84
2023/10/07 10:21:11;;;;;;;5.40;2.80;;;;;;;18.07;61.16;156006.84;4949063;28;20478;-84
2023/10/07 10:23:40;;;;;;;4.97;3.07;;;;;;;18.19;64.01;156038.09;4954483;28;20597;-83
2023/10/07 10:26:20;;;;;;;3.60;2.57;;;;;;;18.21;64.47;156043.28;4945117;28;20549;-83
2023/10/07 10:28:59;;;;;;;4.90;2.93;;;;;;;18.18;65.89;156035.50;4948197;28;20442;-83
2023/10/07 10:31:32;;;;;;;7.47;2.60;;;;;;;18.17;60.63;156032.88;4943640;28;20454;-83
2023/10/07 10:34:01;;;;;;;3.80;2.90;;;;;;;18.22;60.01;156045.91;4963586;28;20544;-83
2023/10/07 10:36:28;;;;;;;3.67;2.80;;;;;;;18.32;63.22;156069.38;4949233;28;20474;-83
2023/10/07 10:38:56;;;;;;;5.17;3.77;;;;;;;18.29;58.41;156062.84;4949488;28;20801;-83
2023/10/07 10:41:29;;;;;;;4.17;2.30;;;;;;;18.38;59.08;156084.97;4971992;28;20507;-83
2023/10/07 10:44:08;;;;;;;4.67;2.60;;;;;;;18.44;59.16;156101.91;4966000;28;20967;-84
2023/10/07 10:46:46;;;;;;;7.10;3.60;;;;;;;18.47;59.39;156109.78;4948555;28;20826;-83
2023/10/07 10:49:15;;;;;;;4.50;2.47;;;;;;;18.51;60.61;156118.88;4963120;28;20787;-83
2023/10/07 10:51:45;;;;;;;3.60;2.43;;;;;;;18.55;61.94;156129.31;4946691;28;20834;-83
2023/10/07 10:54:18;;;;;;;5.73;2.97;;;;;;;18.62;61.93;156147.53;4950898;28;20450;-83
2023/10/07 10:56:48;;;;;;;3.20;2.37;;;;;;;18.63;59.20;156151.47;4949233;28;20824;-84
2023/10/07 10:59:15;;;;;;;3.70;3.20;;;;;;;18.70;61.98;156168.38;4970049;28;20515;-84
2023/10/07 11:01:43;;;;;;;3.30;2.43;;;;;;;18.70;57.38;156168.38;4943492;28;20489;-82
2023/10/07 11:04:19;;;;;;;4.13;2.43;;;;;;;18.74;60.41;156178.84;4966291;28;20565;-83
2023/10/07 11:06:50;;;;;;;4.00;2.27;;;;;;;18.77;64.17;156186.66;4946312;28;20489;-83
2023/10/07 11:09:26;;;;;;;3.70;2.30;;;;;;;18.71;61.56;156172.31;4947137;28;20868;-83
2023/10/07 11:11:56;;;;;;;4.20;2.43;;;;;;;18.78;56.43;156189.22;4966014;28;20449;-83
2023/10/07 11:14:23;;;;;;;3.93;2.67;;;;;;;18.90;64.35;156220.53;4964147;28;20489;-83
2023/10/07 11:16:51;;;;;;;4.33;2.67;;;;;;;18.88;60.56;156214.03;4950353;28;21153;-83
2023/10/07 11:19:19;;;;;;;4.87;3.20;;;;;;;18.91;57.24;156221.78;4967057;28;20824;-83
2023/10/07 11:21:48;;;;;;;4.70;3.07;;;;;;;18.99;59.14;156243.97;4950324;28;20467;-83
2023/10/07 11:24:27;;;;;;;5.30;2.87;;;;;;;19.04;59.82;156256.97;4959193;28;20607;-83
2023/10/07 11:26:56;;;;;;;5.40;2.57;;;;;;;19.10;57.17;156272.63;4970106;28;20566;-83
2023/10/07 11:29:30;;;;;;;3.10;2.70;;;;;;;19.13;57.04;156280.47;4956402;28;20533;-83
2023/10/07 11:32:06;;;;;;;3.40;2.57;;;;;;;19.21;56.16;156300.00;4972601;28;20457;-83
2023/10/07 11:34:42;;;;;;;4.60;2.80;;;;;;;19.26;58.17;156314.34;4971027;28;20446;-84
2023/10/07 11:37:13;;;;;;;4.97;3.40;;;;;;;19.25;57.43;156310.41;4956718;28;20458;-82
2023/10/07 11:39:46;;;;;;;3.10;2.30;;;;;;;19.24;58.85;156309.13;4956939;28;20540;-82
2023/10/07 11:42:14;;;;;;;4.17;3.17;;;;;;;19.23;56.38;156306.53;4956105;28;20490;-83
2023/10/07 11:44:42;;;;;;;4.20;2.70;;;;;;;19.20;55.72;156297.38;4972047;28;20461;-83
2023/10/07 11:47:10;;;;;;;3.63;2.67;;;;;;;19.20;59.21;156298.69;4955540;28;20453;-83
2023/10/07 11:49:37;;;;;;;4.90;3.10;;;;;;;19.17;63.97;156290.88;4972204;28;20457;-83
2023/10/07 11:52:04;;;;;;;3.83;2.70;;;;;;;19.11;61.86;156273.94;4969034;28;20854;-83
2023/10/07 11:54:34;;;;;;;3.90;2.70;;;;;;;19.07;58.89;156263.50;4973399;28;20459;-83
2023/10/07 11:57:04;;;;;;;3.70;3.30;;;;;;;19.10;65.41;156272.63;4952602;28;20837;-83
2023/10/07 11:59:33;;;;;;;3.50;2.80;;;;;;;19.06;58.20;156260.91;4953264;28;20470;-85